createdAt,value
2019-03-18T00:01:36.112Z,68.51
2019-03-18T00:06:38.569Z,68.44
2019-03-18T00:11:41.025Z,68.60
2019-03-18T00:16:43.518Z,68.66
2019-03-18T00:21:45.981Z,68.67
2019-03-18T00:26:48.441Z,68.62
2019-03-18T00:31:50.914Z,68.52
2019-03-18T00:36:53.368Z,68.57
2019-03-18T00:41:55.837Z,68.60
2019-03-18T00:46:58.300Z,68.76
2019-03-18T00:52:00.766Z,68.51
2019-03-18T00:57:03.226Z,68.60
2019-03-18T01:02:05.681Z,68.64
2019-03-18T01:07:08.139Z,68.68
2019-03-18T01:12:10.608Z,68.45
2019-03-18T01:17:13.062Z,68.36
2019-03-18T01:22:15.510Z,68.45
2019-03-18T01:27:17.963Z,68.61
2019-03-18T01:32:20.443Z,68.64
2019-03-18T01:37:22.909Z,68.66
2019-03-18T01:42:25.330Z,68.79
2019-03-18T01:47:27.775Z,68.75
2019-03-18T01:52:30.241Z,68.93
2019-03-18T01:57:32.683Z,68.69
2019-03-18T02:02:35.168Z,68.74
2019-03-18T02:07:37.617Z,68.65
2019-03-18T02:12:40.085Z,68.81
2019-03-18T02:17:42.534Z,68.77
2019-03-18T02:22:44.991Z,68.76
2019-03-18T02:27:47.448Z,68.82
2019-03-18T02:32:49.921Z,68.69
2019-03-18T02:37:52.377Z,68.78
2019-03-18T02:42:54.929Z,68.77
2019-03-18T02:47:57.378Z,68.84
2019-03-18T02:52:59.832Z,68.72
2019-03-18T02:58:02.266Z,68.77
2019-03-18T03:03:04.844Z,68.79
2019-03-18T03:08:07.303Z,68.99
2019-03-18T03:13:09.745Z,68.95
2019-03-18T03:18:12.202Z,68.90
2019-03-18T03:23:14.651Z,69.08
2019-03-18T03:28:17.092Z,69.06
2019-03-18T03:33:19.548Z,69.12
2019-03-18T03:38:23.744Z,68.99
2019-03-18T03:43:24.447Z,69.07
2019-03-18T03:48:26.927Z,69.13
2019-03-18T03:53:31.103Z,69.22
2019-03-18T03:58:31.883Z,69.06
2019-03-18T04:03:38.639Z,69.21
2019-03-18T04:08:36.790Z,69.30
2019-03-18T04:13:39.245Z,69.21
2019-03-18T04:18:41.710Z,69.33
2019-03-18T04:23:44.168Z,69.52
2019-03-18T04:28:46.630Z,69.48
2019-03-18T04:33:49.083Z,68.98
2019-03-18T04:38:51.557Z,68.35
2019-03-18T04:43:54.011Z,68.26
2019-03-18T04:48:56.469Z,68.07
2019-03-18T04:53:58.952Z,67.64
2019-03-18T04:59:01.416Z,67.67
2019-03-18T05:04:03.995Z,67.45
2019-03-18T05:09:06.434Z,67.35
2019-03-18T05:14:08.886Z,67.16
2019-03-18T05:19:11.347Z,67.08
2019-03-18T05:24:13.793Z,66.90
2019-03-18T05:29:16.247Z,66.91
2019-03-18T05:34:18.744Z,66.89
2019-03-18T05:39:21.197Z,66.87
2019-03-18T05:44:23.660Z,66.85
2019-03-18T05:49:26.125Z,66.80
2019-03-18T05:54:28.598Z,66.78
2019-03-18T05:59:31.111Z,66.57
2019-03-18T06:04:33.580Z,66.47
2019-03-18T06:09:36.061Z,66.28
2019-03-18T06:14:38.538Z,65.93
2019-03-18T06:19:40.986Z,65.66
2019-03-18T06:24:43.442Z,65.31
2019-03-18T06:29:45.898Z,64.86
2019-03-18T06:34:48.352Z,64.39
2019-03-18T06:39:50.919Z,64.34
2019-03-18T06:44:53.374Z,64.15
2019-03-18T06:49:55.828Z,63.68
2019-03-18T06:54:58.285Z,62.89
2019-03-18T07:00:00.747Z,62.12
2019-03-18T07:05:03.211Z,61.35
2019-03-18T07:10:08.371Z,60.96
2019-03-18T07:15:10.848Z,60.46
2019-03-18T07:20:13.312Z,59.96
2019-03-18T07:25:15.782Z,59.36
2019-03-18T07:30:18.240Z,59.08
2019-03-18T07:35:20.697Z,58.82
2019-03-18T07:40:23.144Z,57.37
2019-03-18T07:45:25.611Z,55.98
2019-03-18T07:50:28.063Z,53.16
2019-03-18T07:55:30.531Z,53.60
2019-03-18T08:00:33.012Z,40.06
2019-03-18T08:05:35.465Z,33.07
2019-03-18T08:10:37.928Z,41.86
2019-03-18T08:15:40.417Z,47.05
2019-03-18T08:20:42.890Z,43.65
2019-03-18T08:25:45.367Z,32.04
2019-03-18T08:30:47.831Z,40.37
2019-03-18T08:35:50.298Z,26.05
2019-03-18T08:40:52.768Z,22.69
2019-03-18T08:45:55.428Z,22.36
2019-03-18T08:50:57.821Z,18.00
2019-03-18T08:56:00.288Z,29.71
2019-03-18T09:01:02.750Z,33.74
2019-03-18T09:06:05.223Z,35.34
2019-03-18T09:11:07.675Z,32.85
2019-03-18T09:16:10.138Z,34.91
2019-03-18T09:21:12.597Z,29.75
2019-03-18T09:26:15.053Z,16.08
2019-03-18T09:31:17.556Z,15.11
2019-03-18T09:36:19.991Z,21.63
2019-03-18T09:41:22.455Z,24.92
2019-03-18T09:46:24.925Z,30.90
2019-03-18T09:51:27.399Z,33.88
2019-03-18T09:56:29.861Z,33.87
2019-03-18T10:01:32.322Z,36.94
2019-03-18T10:06:34.784Z,37.17
2019-03-18T10:11:37.265Z,35.85
2019-03-18T10:16:39.734Z,27.69
2019-03-18T10:21:42.176Z,29.82
2019-03-18T10:26:44.646Z,31.22
2019-03-18T10:31:47.115Z,35.77
2019-03-18T10:36:49.583Z,38.13
2019-03-18T10:41:52.053Z,40.22
2019-03-18T10:46:54.543Z,43.33
2019-03-18T10:51:57.019Z,45.90
2019-03-18T10:56:59.478Z,47.85
2019-03-18T11:02:01.930Z,48.21
2019-03-18T11:07:04.379Z,48.82
2019-03-18T11:12:06.832Z,50.94
2019-03-18T11:17:09.295Z,51.57
2019-03-18T11:22:11.751Z,51.47
2019-03-18T11:27:14.212Z,50.72
2019-03-18T11:32:16.672Z,47.37
2019-03-18T11:37:19.122Z,44.28
2019-03-18T11:42:21.592Z,43.82
2019-03-18T11:47:24.051Z,42.12
2019-03-18T11:52:26.514Z,42.51
2019-03-18T11:57:28.980Z,42.66
2019-03-18T12:02:31.429Z,41.94
2019-03-18T12:07:33.883Z,39.40
2019-03-18T12:12:36.351Z,39.46
2019-03-18T12:17:38.802Z,42.00
2019-03-18T12:22:41.255Z,41.89
2019-03-18T12:27:43.773Z,43.74
2019-03-18T12:32:46.240Z,42.45
2019-03-18T12:37:48.705Z,42.27
2019-03-18T12:42:51.168Z,44.09
2019-03-18T12:47:53.646Z,45.23
2019-03-18T12:52:56.104Z,46.26
2019-03-18T12:57:58.569Z,43.63
2019-03-18T13:03:01.044Z,40.55
2019-03-18T13:08:03.515Z,42.64
2019-03-18T13:13:05.978Z,43.79
2019-03-18T13:18:08.433Z,43.53
2019-03-18T13:23:10.905Z,44.24
2019-03-18T13:28:13.427Z,44.82
2019-03-18T13:33:15.828Z,42.06
2019-03-18T13:38:18.304Z,39.96
2019-03-18T13:43:20.755Z,40.86
2019-03-18T13:48:23.367Z,43.08
2019-03-18T13:53:25.837Z,44.31
2019-03-18T13:58:28.291Z,44.52
2019-03-18T14:03:30.767Z,45.29
2019-03-18T14:08:33.214Z,45.86
2019-03-18T14:13:35.682Z,46.13
2019-03-18T14:18:38.206Z,45.86
2019-03-18T14:23:40.694Z,46.12
2019-03-18T14:28:43.174Z,44.80
2019-03-18T14:33:45.628Z,45.40
2019-03-18T14:38:48.199Z,45.44
2019-03-18T14:43:50.560Z,45.72
2019-03-18T14:48:53.015Z,44.66
2019-03-18T14:53:55.478Z,46.78
2019-03-18T14:58:57.934Z,48.57
2019-03-18T15:04:00.400Z,50.64
2019-03-18T15:09:02.933Z,51.54
2019-03-18T15:14:05.400Z,51.85
2019-03-18T15:19:07.855Z,51.64
2019-03-18T15:24:16.800Z,50.19
2019-03-18T15:29:12.840Z,49.79
2019-03-18T15:34:15.304Z,49.47
2019-03-18T15:39:17.767Z,49.61
2019-03-18T15:44:20.238Z,50.26
2019-03-18T15:49:22.712Z,50.41
2019-03-18T15:54:25.158Z,50.77
2019-03-18T15:59:27.655Z,51.11
2019-03-18T16:04:30.107Z,50.78
2019-03-18T16:09:32.580Z,51.55
2019-03-18T16:14:35.046Z,50.95
2019-03-18T16:19:37.514Z,51.23
2019-03-18T16:24:40.180Z,51.57
2019-03-18T16:29:42.668Z,52.08
2019-03-18T16:34:45.328Z,52.16
2019-03-18T16:39:47.818Z,53.04
2019-03-18T16:44:50.287Z,53.21
2019-03-18T16:49:52.754Z,52.64
2019-03-18T16:54:55.218Z,52.92
2019-03-18T16:59:57.951Z,52.53
2019-03-18T17:05:00.423Z,52.50
2019-03-18T17:10:02.858Z,52.84
2019-03-18T17:15:05.424Z,53.58
2019-03-18T17:20:10.741Z,54.45
2019-03-18T17:25:19.206Z,54.93
2019-03-18T17:30:21.669Z,54.57
2019-03-18T17:35:24.131Z,55.16
2019-03-18T17:40:26.711Z,55.75
2019-03-18T17:45:29.193Z,55.82
2019-03-18T17:50:31.654Z,55.47
2019-03-18T17:55:34.102Z,55.46
2019-03-18T18:00:36.576Z,55.59
2019-03-18T18:05:39.029Z,55.88
2019-03-18T18:10:41.524Z,56.33
2019-03-18T18:15:43.990Z,57.30
2019-03-18T18:20:46.460Z,57.73
2019-03-18T18:25:48.965Z,58.33
2019-03-18T18:30:51.443Z,58.72
2019-03-18T18:35:53.921Z,59.52
2019-03-18T18:40:56.394Z,59.90
2019-03-18T18:45:58.869Z,60.59
2019-03-18T18:51:01.328Z,60.87
2019-03-18T18:56:05.716Z,61.31
2019-03-18T19:01:06.256Z,61.47
2019-03-18T19:06:08.729Z,62.17
2019-03-18T19:11:11.294Z,62.73
2019-03-18T19:16:13.708Z,63.02
2019-03-18T19:21:16.188Z,63.06
2019-03-18T19:26:18.690Z,63.54
2019-03-18T19:31:21.143Z,63.64
2019-03-18T19:36:23.650Z,64.29
2019-03-18T19:41:26.124Z,63.92
2019-03-18T19:46:28.636Z,64.57
2019-03-18T19:51:31.117Z,64.80
2019-03-18T19:56:33.587Z,65.12
2019-03-18T20:01:36.049Z,64.83
2019-03-18T20:06:38.541Z,64.73
2019-03-18T20:11:41.003Z,65.11
2019-03-18T20:16:43.469Z,65.32
2019-03-18T20:21:45.951Z,66.23
2019-03-18T20:26:48.437Z,66.13
2019-03-18T20:31:50.944Z,66.15
2019-03-18T20:36:53.446Z,66.21
2019-03-18T20:41:55.918Z,66.54
2019-03-18T20:46:58.435Z,66.11
2019-03-18T20:52:00.932Z,66.47
2019-03-18T20:57:03.468Z,66.17
2019-03-18T21:02:05.895Z,66.34
2019-03-18T21:07:08.382Z,66.17
2019-03-18T21:12:10.866Z,65.94
2019-03-18T21:17:13.335Z,65.79
2019-03-18T21:22:15.834Z,65.42
2019-03-18T21:27:18.300Z,65.17
2019-03-18T21:32:20.769Z,65.77
2019-03-18T21:37:23.247Z,65.69
2019-03-18T21:42:25.725Z,65.28
2019-03-18T21:47:28.200Z,65.53
2019-03-18T21:52:30.671Z,65.63
2019-03-18T21:57:33.136Z,65.53
2019-03-18T22:02:35.607Z,65.38
2019-03-18T22:07:38.183Z,65.55
2019-03-18T22:12:40.579Z,65.99
2019-03-18T22:17:43.086Z,65.53
2019-03-18T22:22:45.566Z,65.62
2019-03-18T22:27:48.033Z,65.66
2019-03-18T22:32:50.521Z,65.63
2019-03-18T22:37:52.979Z,65.88
2019-03-18T22:42:55.477Z,66.18
2019-03-18T22:47:57.986Z,66.58
2019-03-18T22:53:00.451Z,66.24
2019-03-18T22:58:02.924Z,66.37
2019-03-18T23:03:05.403Z,66.51
2019-03-18T23:08:07.883Z,66.21
2019-03-18T23:13:10.341Z,66.05
2019-03-18T23:18:12.806Z,65.90
2019-03-18T23:23:15.268Z,66.07
2019-03-18T23:28:17.721Z,65.96
2019-03-18T23:33:20.192Z,65.78
2019-03-18T23:38:22.664Z,66.10
2019-03-18T23:43:25.123Z,65.92
2019-03-18T23:48:27.599Z,65.83
2019-03-18T23:53:30.053Z,65.74
2019-03-18T23:58:32.507Z,65.83
